< < Back
Terminal Aerodrome Forecast


Current Version              Previous Versions:   1  2  3  4  5  6  7  8  9  

Terminal Aerodrome Forecast

457
FTUS42 KGSP 260527
TAFGSP
TAF
KGSP 260527Z 2606/2706 10003KT P6SM VCSH BKN050
     FM261100 14003KT 6SM BR VCSH SCT010 BKN020
      TEMPO 2611/2613 BKN007
     FM261500 19003KT P6SM SCT008 BKN025
     FM261700 19005KT P6SM BKN090 PROB30 2618/2624 4SM -TSRA
      OVC025CB
     FM270000 19004KT P6SM -SHRA OVC070=

Latest METAR

806
SAUS70 KWBC 262200 RRA
MTRGSP
METAR KGSP 262153Z 17008KT 10SM FEW055 29/18 A2998 RMK AO2 SLP141
T02890178


USA.gov is the U.S. government's official web portal to all federal, state and local government web resources and services.